sensor_id;sensor_type;location;lat;lon;timestamp;pressure;altitude;pressure_sealevel;temperature;humidity
26859;BME280;14429;48.346;16.338;2023-05-23T00:01:05;99325.69;;;20.96;63.75
26859;BME280;14429;48.346;16.338;2023-05-23T00:03:30;99323.19;;;21.16;62.84
26859;BME280;14429;48.346;16.338;2023-05-23T00:05:56;99325.13;;;21.08;62.96
26859;BME280;14429;48.346;16.338;2023-05-23T00:08:21;99323.25;;;21.38;62.33
26859;BME280;14429;48.346;16.338;2023-05-23T00:10:48;99323.47;;;20.99;63.35
26859;BME280;14429;48.346;16.338;2023-05-23T00:13:14;99325.22;;;20.92;63.32
26859;BME280;14429;48.346;16.338;2023-05-23T00:15:39;99329.41;;;20.73;63.25
26859;BME280;14429;48.346;16.338;2023-05-23T00:18:05;99316.97;;;20.48;65.05
26859;BME280;14429;48.346;16.338;2023-05-23T00:20:31;99323.28;;;20.41;65.28
26859;BME280;14429;48.346;16.338;2023-05-23T00:22:56;99320.63;;;20.63;64.57
26859;BME280;14429;48.346;16.338;2023-05-23T00:25:22;99323.03;;;20.58;64.96
26859;BME280;14429;48.346;16.338;2023-05-23T00:27:49;99319.88;;;20.77;64.25
26859;BME280;14429;48.346;16.338;2023-05-23T00:30:14;99324.56;;;20.90;63.61
26859;BME280;14429;48.346;16.338;2023-05-23T00:32:40;99324.22;;;21.15;62.82
26859;BME280;14429;48.346;16.338;2023-05-23T00:35:06;99320.53;;;21.38;62.12
26859;BME280;14429;48.346;16.338;2023-05-23T00:37:32;99320.31;;;21.62;61.39
26859;BME280;14429;48.346;16.338;2023-05-23T00:39:57;99325.97;;;21.75;60.70
26859;BME280;14429;48.346;16.338;2023-05-23T00:42:23;99326.34;;;21.72;60.79
26859;BME280;14429;48.346;16.338;2023-05-23T00:44:49;99328.31;;;21.78;60.36
26859;BME280;14429;48.346;16.338;2023-05-23T00:47:15;99322.78;;;21.86;60.11
26859;BME280;14429;48.346;16.338;2023-05-23T00:49:42;99321.31;;;21.83;60.15
26859;BME280;14429;48.346;16.338;2023-05-23T00:52:07;99325.13;;;21.88;60.15
26859;BME280;14429;48.346;16.338;2023-05-23T00:54:33;99318.97;;;21.94;59.44
26859;BME280;14429;48.346;16.338;2023-05-23T00:57:01;99315.19;;;22.03;59.17
26859;BME280;14429;48.346;16.338;2023-05-23T00:59:27;99319.19;;;22.07;59.52
26859;BME280;14429;48.346;16.338;2023-05-23T01:01:55;99325.41;;;21.79;59.45
26859;BME280;14429;48.346;16.338;2023-05-23T01:04:21;99312.88;;;21.92;59.24
26859;BME280;14429;48.346;16.338;2023-05-23T01:06:46;99323.00;;;21.98;59.22
26859;BME280;14429;48.346;16.338;2023-05-23T01:09:12;99313.28;;;22.04;58.89
26859;BME280;14429;48.346;16.338;2023-05-23T01:11:44;99314.81;;;22.06;59.07
26859;BME280;14429;48.346;16.338;2023-05-23T01:14:16;99306.19;;;22.17;58.76
26859;BME280;14429;48.346;16.338;2023-05-23T01:16:46;99304.69;;;22.29;58.34
26859;BME280;14429;48.346;16.338;2023-05-23T01:19:35;99303.97;;;22.35;58.04
26859;BME280;14429;48.346;16.338;2023-05-23T01:22:11;99295.22;;;22.25;58.08
26859;BME280;14429;48.346;16.338;2023-05-23T01:24:46;99298.06;;;22.17;58.53
26859;BME280;14429;48.346;16.338;2023-05-23T01:27:23;99298.91;;;22.32;58.03
26859;BME280;14429;48.346;16.338;2023-05-23T01:29:57;99299.72;;;22.32;57.94
26859;BME280;14429;48.346;16.338;2023-05-23T01:32:26;99300.78;;;22.31;57.82
26859;BME280;14429;48.346;16.338;2023-05-23T01:34:53;99301.72;;;22.24;58.36
26859;BME280;14429;48.346;16.338;2023-05-23T01:37:19;99291.09;;;22.29;58.33
26859;BME280;14429;48.346;16.338;2023-05-23T01:39:44;99294.66;;;22.29;58.11
26859;BME280;14429;48.346;16.338;2023-05-23T01:42:10;99296.91;;;22.26;57.84
26859;BME280;14429;48.346;16.338;2023-05-23T01:44:36;99291.22;;;22.21;58.36
26859;BME280;14429;48.346;16.338;2023-05-23T01:47:05;99292.78;;;22.16;58.56
26859;BME280;14429;48.346;16.338;2023-05-23T01:49:32;99295.78;;;22.06;57.97
26859;BME280;14429;48.346;16.338;2023-05-23T01:51:59;99291.56;;;22.18;58.11
26859;BME280;14429;48.346;16.338;2023-05-23T01:54:25;99289.22;;;22.29;57.71
26859;BME280;14429;48.346;16.338;2023-05-23T01:56:51;99294.50;;;22.31;57.80
26859;BME280;14429;48.346;16.338;2023-05-23T01:59:16;99297.00;;;22.32;57.96
26859;BME280;14429;48.346;16.338;2023-05-23T02:01:42;99293.00;;;22.28;57.94
26859;BME280;14429;48.346;16.338;2023-05-23T02:04:09;99294.50;;;22.17;57.98
26859;BME280;14429;48.346;16.338;2023-05-23T02:06:35;99294.03;;;22.13;58.35
26859;BME280;14429;48.346;16.338;2023-05-23T02:09:00;99298.25;;;21.21;59.02
26859;BME280;14429;48.346;16.338;2023-05-23T02:11:26;99287.38;;;21.65;59.27
26859;BME280;14429;48.346;16.338;2023-05-23T02:13:51;99293.69;;;21.43;59.41
26859;BME280;14429;48.346;16.338;2023-05-23T02:16:17;99285.06;;;21.76;59.37
26859;BME280;14429;48.346;16.338;2023-05-23T02:18:42;99287.88;;;21.97;59.18
26859;BME280;14429;48.346;16.338;2023-05-23T02:21:09;99285.13;;;22.05;58.69
26859;BME280;14429;48.346;16.338;2023-05-23T02:23:34;99281.84;;;22.09;58.48
26859;BME280;14429;48.346;16.338;2023-05-23T02:26:00;99281.53;;;22.04;58.45
26859;BME280;14429;48.346;16.338;2023-05-23T02:28:25;99281.03;;;21.87;58.67
26859;BME280;14429;48.346;16.338;2023-05-23T02:30:51;99273.91;;;21.86;58.94
26859;BME280;14429;48.346;16.338;2023-05-23T02:33:16;99274.84;;;21.64;58.65
26859;BME280;14429;48.346;16.338;2023-05-23T02:35:41;99282.94;;;21.86;59.03
26859;BME280;14429;48.346;16.338;2023-05-23T02:38:08;99279.56;;;21.98;58.82
26859;BME280;14429;48.346;16.338;2023-05-23T02:40:34;99273.38;;;22.04;58.51
26859;BME280;14429;48.346;16.338;2023-05-23T02:42:59;99274.97;;;21.99;58.18
26859;BME280;14429;48.346;16.338;2023-05-23T02:45:24;99282.22;;;22.06;57.97
26859;BME280;14429;48.346;16.338;2023-05-23T02:47:50;99274.69;;;22.08;58.29
26859;BME280;14429;48.346;16.338;2023-05-23T02:50:15;99273.50;;;22.11;58.19
26859;BME280;14429;48.346;16.338;2023-05-23T02:52:41;99269.25;;;22.08;57.85
26859;BME280;14429;48.346;16.338;2023-05-23T02:55:08;99270.31;;;22.07;58.29
26859;BME280;14429;48.346;16.338;2023-05-23T02:57:34;99274.84;;;21.92;58.27
26859;BME280;14429;48.346;16.338;2023-05-23T02:59:59;99259.63;;;22.06;58.03
26859;BME280;14429;48.346;16.338;2023-05-23T03:02:24;99267.97;;;22.04;58.17
26859;BME280;14429;48.346;16.338;2023-05-23T03:04:50;99265.53;;;22.09;58.22
26859;BME280;14429;48.346;16.338;2023-05-23T03:07:15;99276.41;;;22.09;57.90
26859;BME280;14429;48.346;16.338;2023-05-23T03:09:41;99269.94;;;22.10;57.72
26859;BME280;14429;48.346;16.338;2023-05-23T03:12:08;99281.69;;;22.03;57.83
26859;BME280;14429;48.346;16.338;2023-05-23T03:14:34;99277.16;;;22.03;57.71
26859;BME280;14429;48.346;16.338;2023-05-23T03:17:00;99280.53;;;22.05;58.20
26859;BME280;14429;48.346;16.338;2023-05-23T03:19:25;99282.22;;;22.06;57.91
26859;BME280;14429;48.346;16.338;2023-05-23T03:21:51;99282.22;;;22.06;57.66
26859;BME280;14429;48.346;16.338;2023-05-23T03:24:16;99280.34;;;22.07;57.79
26859;BME280;14429;48.346;16.338;2023-05-23T03:26:41;99285.47;;;22.02;57.95
26859;BME280;14429;48.346;16.338;2023-05-23T03:29:08;99289.59;;;21.98;57.93
26859;BME280;14429;48.346;16.338;2023-05-23T03:31:34;99301.94;;;22.00;58.18
26859;BME280;14429;48.346;16.338;2023-05-23T03:34:00;99301.75;;;22.02;57.94
26859;BME280;14429;48.346;16.338;2023-05-23T03:36:25;99294.16;;;21.97;57.94
26859;BME280;14429;48.346;16.338;2023-05-23T03:38:51;99289.09;;;21.94;58.04
26859;BME280;14429;48.346;16.338;2023-05-23T03:41:17;99296.31;;;21.88;58.14
26859;BME280;14429;48.346;16.338;2023-05-23T03:43:42;99305.75;;;21.91;58.23
26859;BME280;14429;48.346;16.338;2023-05-23T03:46:09;99303.63;;;21.87;58.33
26859;BME280;14429;48.346;16.338;2023-05-23T03:48:34;99291.16;;;21.92;57.88
26859;BME280;14429;48.346;16.338;2023-05-23T03:51:00;99303.31;;;21.96;58.29
26859;BME280;14429;48.346;16.338;2023-05-23T03:53:25;99299.59;;;21.97;57.86
26859;BME280;14429;48.346;16.338;2023-05-23T03:55:50;99298.09;;;21.95;57.71
26859;BME280;14429;48.346;16.338;2023-05-23T03:58:16;99303.72;;;21.93;57.87
26859;BME280;14429;48.346;16.338;2023-05-23T04:00:41;99298.94;;;21.95;57.72
26859;BME280;14429;48.346;16.338;2023-05-23T04:03:08;99303.53;;;21.95;57.71
26859;BME280;14429;48.346;16.338;2023-05-23T04:05:33;99307.09;;;21.95;58.13
26859;BME280;14429;48.346;16.338;2023-05-23T04:07:59;99301.38;;;21.90;57.65
26859;BME280;14429;48.346;16.338;2023-05-23T04:10:24;99296.94;;;21.89;57.90
26859;BME280;14429;48.346;16.338;2023-05-23T04:12:50;99304.09;;;21.90;58.18
26859;BME280;14429;48.346;16.338;2023-05-23T04:15:15;99306.13;;;21.88;58.13
26859;BME280;14429;48.346;16.338;2023-05-23T04:17:40;99309.53;;;21.90;57.81
26859;BME280;14429;48.346;16.338;2023-05-23T04:20:08;99309.53;;;21.90;57.88
26859;BME280;14429;48.346;16.338;2023-05-23T04:22:34;99309.53;;;21.90;57.85
26859;BME280;14429;48.346;16.338;2023-05-23T04:24:59;99310.00;;;21.94;57.91
26859;BME280;14429;48.346;16.338;2023-05-23T04:27:25;99311.06;;;21.71;56.94
26859;BME280;14429;48.346;16.338;2023-05-23T04:29:50;99309.91;;;20.99;58.87
26859;BME280;14429;48.346;16.338;2023-05-23T04:32:16;99312.81;;;20.98;59.60
26859;BME280;14429;48.346;16.338;2023-05-23T04:34:41;99309.66;;;21.38;59.24
26859;BME280;14429;48.346;16.338;2023-05-23T04:37:08;99309.97;;;21.43;58.70
26859;BME280;14429;48.346;16.338;2023-05-23T04:39:33;99306.97;;;21.75;58.50
26859;BME280;14429;48.346;16.338;2023-05-23T04:41:59;99303.78;;;21.86;58.12
26859;BME280;14429;48.346;16.338;2023-05-23T04:44:24;99298.88;;;22.03;57.23
26859;BME280;14429;48.346;16.338;2023-05-23T04:46:49;99302.34;;;22.12;57.03
26859;BME280;14429;48.346;16.338;2023-05-23T04:49:15;99297.84;;;22.04;57.18
26859;BME280;14429;48.346;16.338;2023-05-23T04:51:41;99301.69;;;22.10;56.88
26859;BME280;14429;48.346;16.338;2023-05-23T04:54:08;99307.88;;;22.18;56.84
26859;BME280;14429;48.346;16.338;2023-05-23T04:56:33;99301.72;;;22.24;56.87
26859;BME280;14429;48.346;16.338;2023-05-23T04:58:59;99308.94;;;22.31;56.51
26859;BME280;14429;48.346;16.338;2023-05-23T05:01:24;99305.63;;;22.36;56.33
26859;BME280;14429;48.346;16.338;2023-05-23T05:03:50;99297.38;;;22.29;56.42
26859;BME280;14429;48.346;16.338;2023-05-23T05:06:15;99297.28;;;22.23;56.70
26859;BME280;14429;48.346;16.338;2023-05-23T05:08:41;99291.22;;;22.21;56.42
26859;BME280;14429;48.346;16.338;2023-05-23T05:11:08;99294.13;;;22.19;56.51
26859;BME280;14429;48.346;16.338;2023-05-23T05:13:34;99301.72;;;22.38;56.33
26859;BME280;14429;48.346;16.338;2023-05-23T05:15:59;99309.66;;;22.54;55.21
26859;BME280;14429;48.346;16.338;2023-05-23T05:18:25;99305.69;;;22.70;54.76
26859;BME280;14429;48.346;16.338;2023-05-23T05:20:50;99305.06;;;22.83;54.65
26859;BME280;14429;48.346;16.338;2023-05-23T05:23:16;99313.09;;;22.62;55.21
26859;BME280;14429;48.346;16.338;2023-05-23T05:25:41;99310.88;;;22.51;55.42
26859;BME280;14429;48.346;16.338;2023-05-23T05:28:08;99304.69;;;22.57;55.43
26859;BME280;14429;48.346;16.338;2023-05-23T05:30:33;99305.91;;;22.41;55.62
26859;BME280;14429;48.346;16.338;2023-05-23T05:32:59;99308.09;;;22.31;55.93
26859;BME280;14429;48.346;16.338;2023-05-23T05:35:25;99311.91;;;22.36;55.76
26859;BME280;14429;48.346;16.338;2023-05-23T05:37:50;99307.97;;;22.39;55.61
26859;BME280;14429;48.346;16.338;2023-05-23T05:40:16;99315.31;;;22.38;55.92
26859;BME280;14429;48.346;16.338;2023-05-23T05:42:41;99305.72;;;22.42;55.46
26859;BME280;14429;48.346;16.338;2023-05-23T05:45:09;99300.47;;;22.41;55.78
26859;BME280;14429;48.346;16.338;2023-05-23T05:47:34;99299.53;;;22.48;55.74
26859;BME280;14429;48.346;16.338;2023-05-23T05:50:00;99308.63;;;22.41;55.53
26859;BME280;14429;48.346;16.338;2023-05-23T05:52:25;99306.72;;;22.55;55.57
26859;BME280;14429;48.346;16.338;2023-05-23T05:54:50;99307.09;;;22.52;55.48
26859;BME280;14429;48.346;16.338;2023-05-23T05:57:16;99307.75;;;22.69;54.79
26859;BME280;14429;48.346;16.338;2023-05-23T05:59:41;99302.38;;;22.75;54.35
26859;BME280;14429;48.346;16.338;2023-05-23T06:02:09;99300.72;;;22.88;54.18
26859;BME280;14429;48.346;16.338;2023-05-23T06:04:34;99299.50;;;22.91;53.96
26859;BME280;14429;48.346;16.338;2023-05-23T06:07:00;99309.88;;;23.22;53.77
26859;BME280;14429;48.346;16.338;2023-05-23T06:09:25;99301.59;;;23.09;53.67
26859;BME280;14429;48.346;16.338;2023-05-23T06:11:51;99295.31;;;23.09;53.85
26859;BME280;14429;48.346;16.338;2023-05-23T06:14:16;99309.88;;;23.01;53.87
26859;BME280;14429;48.346;16.338;2023-05-23T06:16:41;99309.88;;;23.01;53.92
26859;BME280;14429;48.346;16.338;2023-05-23T06:19:08;99308.00;;;23.02;53.77
26859;BME280;14429;48.346;16.338;2023-05-23T06:21:34;99308.72;;;23.10;53.83
26859;BME280;14429;48.346;16.338;2023-05-23T06:23:59;99311.44;;;23.10;53.53
26859;BME280;14429;48.346;16.338;2023-05-23T06:26:24;99306.13;;;23.64;53.33
26859;BME280;14429;48.346;16.338;2023-05-23T06:28:50;99298.09;;;23.77;52.01
26859;BME280;14429;48.346;16.338;2023-05-23T06:31:15;99306.91;;;23.38;52.84
26859;BME280;14429;48.346;16.338;2023-05-23T06:33:41;99306.13;;;23.44;52.94
26859;BME280;14429;48.346;16.338;2023-05-23T06:36:07;99301.88;;;23.35;52.82
26859;BME280;14429;48.346;16.338;2023-05-23T06:38:33;99303.34;;;23.37;53.33
26859;BME280;14429;48.346;16.338;2023-05-23T06:40:58;99310.28;;;23.40;52.66
26859;BME280;14429;48.346;16.338;2023-05-23T06:43:24;99309.94;;;23.08;53.53
26859;BME280;14429;48.346;16.338;2023-05-23T06:45:49;99297.69;;;23.80;52.12
26859;BME280;14429;48.346;16.338;2023-05-23T06:48:15;99295.13;;;24.26;51.80
26859;BME280;14429;48.346;16.338;2023-05-23T06:50:40;99298.56;;;24.41;50.20
26859;BME280;14429;48.346;16.338;2023-05-23T06:53:07;99294.03;;;24.61;49.82
26859;BME280;14429;48.346;16.338;2023-05-23T06:55:32;99300.19;;;24.29;50.10
26859;BME280;14429;48.346;16.338;2023-05-23T06:57:58;99302.03;;;24.02;51.01
26859;BME280;14429;48.346;16.338;2023-05-23T07:00:23;99299.13;;;23.76;51.47
26859;BME280;14429;48.346;16.338;2023-05-23T07:02:49;99301.44;;;24.66;49.48
26859;BME280;14429;48.346;16.338;2023-05-23T07:05:14;99290.06;;;24.23;50.21
26859;BME280;14429;48.346;16.338;2023-05-23T07:07:40;99289.81;;;23.91;51.39
26859;BME280;14429;48.346;16.338;2023-05-23T07:10:08;99290.22;;;24.15;50.62
26859;BME280;14429;48.346;16.338;2023-05-23T07:12:33;99285.59;;;23.89;52.74
26859;BME280;14429;48.346;16.338;2023-05-23T07:14:59;99282.94;;;24.22;50.70
26859;BME280;14429;48.346;16.338;2023-05-23T07:17:24;99285.72;;;24.75;50.05
26859;BME280;14429;48.346;16.338;2023-05-23T07:19:50;99285.00;;;24.20;50.65
26859;BME280;14429;48.346;16.338;2023-05-23T07:22:15;99278.94;;;23.98;51.38
26859;BME280;14429;48.346;16.338;2023-05-23T07:24:40;99278.91;;;23.91;51.20
26859;BME280;14429;48.346;16.338;2023-05-23T07:27:07;99279.59;;;24.00;51.42
26859;BME280;14429;48.346;16.338;2023-05-23T07:29:33;99282.38;;;24.33;50.70
26859;BME280;14429;48.346;16.338;2023-05-23T07:31:58;99271.31;;;24.81;49.58
26859;BME280;14429;48.346;16.338;2023-05-23T07:34:24;99276.69;;;24.28;50.29
26859;BME280;14429;48.346;16.338;2023-05-23T07:36:49;99279.09;;;23.90;51.34
26859;BME280;14429;48.346;16.338;2023-05-23T07:39:15;99272.06;;;23.75;52.79
26859;BME280;14429;48.346;16.338;2023-05-23T07:41:40;99261.19;;;24.08;52.87
26859;BME280;14429;48.346;16.338;2023-05-23T07:44:07;99261.41;;;24.07;51.50
26859;BME280;14429;48.346;16.338;2023-05-23T07:46:32;99257.13;;;23.91;51.61
26859;BME280;14429;48.346;16.338;2023-05-23T07:48:58;99259.25;;;23.96;52.37
26859;BME280;14429;48.346;16.338;2023-05-23T07:51:23;99261.78;;;23.50;52.91
26859;BME280;14429;48.346;16.338;2023-05-23T07:53:49;99268.03;;;23.02;54.03
26859;BME280;14429;48.346;16.338;2023-05-23T07:56:14;99269.44;;;23.19;53.53
26859;BME280;14429;48.346;16.338;2023-05-23T07:58:39;99265.94;;;23.46;54.08
26859;BME280;14429;48.346;16.338;2023-05-23T08:01:06;99268.28;;;23.28;53.61
26859;BME280;14429;48.346;16.338;2023-05-23T08:03:32;99276.16;;;23.23;53.78
26859;BME280;14429;48.346;16.338;2023-05-23T08:05:57;99274.22;;;22.97;54.67
26859;BME280;14429;48.346;16.338;2023-05-23T08:08:22;99265.63;;;22.79;54.88
26859;BME280;14429;48.346;16.338;2023-05-23T08:10:48;99266.03;;;22.76;54.86
26859;BME280;14429;48.346;16.338;2023-05-23T08:13:13;99254.09;;;22.91;54.96
26859;BME280;14429;48.346;16.338;2023-05-23T08:15:39;99260.94;;;22.73;55.00
26859;BME280;14429;48.346;16.338;2023-05-23T08:18:06;99259.09;;;22.59;55.74
26859;BME280;14429;48.346;16.338;2023-05-23T08:20:31;99270.19;;;22.58;55.57
26859;BME280;14429;48.346;16.338;2023-05-23T08:22:57;99258.94;;;22.46;56.28
26859;BME280;14429;48.346;16.338;2023-05-23T08:25:22;99259.00;;;22.53;56.33
26859;BME280;14429;48.346;16.338;2023-05-23T08:27:48;99254.03;;;22.56;56.25
26859;BME280;14429;48.346;16.338;2023-05-23T08:30:14;99244.09;;;22.63;55.77
26859;BME280;14429;48.346;16.338;2023-05-23T08:32:39;99248.09;;;22.67;55.62
26859;BME280;14429;48.346;16.338;2023-05-23T08:35:07;99247.38;;;22.59;55.60
26859;BME280;14429;48.346;16.338;2023-05-23T08:37:33;99251.88;;;22.80;55.30
26859;BME280;14429;48.346;16.338;2023-05-23T08:39:58;99249.31;;;22.79;56.08
26859;BME280;14429;48.346;16.338;2023-05-23T08:42:23;99249.31;;;22.79;55.24
26859;BME280;14429;48.346;16.338;2023-05-23T08:44:49;99252.69;;;22.81;55.08
26859;BME280;14429;48.346;16.338;2023-05-23T08:47:17;99246.56;;;22.93;55.48
26859;BME280;14429;48.346;16.338;2023-05-23T08:49:44;99248.50;;;22.64;55.87
26859;BME280;14429;48.346;16.338;2023-05-23T08:52:13;99247.25;;;22.67;55.62
26859;BME280;14429;48.346;16.338;2023-05-23T08:54:42;99250.41;;;22.98;57.16
26859;BME280;14429;48.346;16.338;2023-05-23T08:57:09;99240.53;;;23.18;55.12
26859;BME280;14429;48.346;16.338;2023-05-23T08:59:35;99241.50;;;23.11;55.30
26859;BME280;14429;48.346;16.338;2023-05-23T09:02:02;99239.47;;;22.78;55.46
26859;BME280;14429;48.346;16.338;2023-05-23T09:04:27;99242.41;;;22.62;55.92
26859;BME280;14429;48.346;16.338;2023-05-23T09:06:54;99241.84;;;23.22;56.48
26859;BME280;14429;48.346;16.338;2023-05-23T09:09:22;99240.44;;;23.47;54.67
26859;BME280;14429;48.346;16.338;2023-05-23T09:11:48;99243.00;;;23.13;54.41
26859;BME280;14429;48.346;16.338;2023-05-23T09:14:13;99243.25;;;22.98;54.79
26859;BME280;14429;48.346;16.338;2023-05-23T09:16:39;99241.06;;;23.49;54.44
26859;BME280;14429;48.346;16.338;2023-05-23T09:19:11;99233.16;;;23.87;53.80
26859;BME280;14429;48.346;16.338;2023-05-23T09:21:42;99234.91;;;23.67;53.11
26859;BME280;14429;48.346;16.338;2023-05-23T09:24:07;99237.09;;;23.78;53.60
26859;BME280;14429;48.346;16.338;2023-05-23T09:26:34;99236.94;;;23.38;53.71
26859;BME280;14429;48.346;16.338;2023-05-23T09:29:00;99235.31;;;23.17;54.37
26859;BME280;14429;48.346;16.338;2023-05-23T09:31:31;99231.84;;;23.29;56.42
26859;BME280;14429;48.346;16.338;2023-05-23T09:33:57;99231.75;;;23.16;55.25
26859;BME280;14429;48.346;16.338;2023-05-23T09:36:22;99238.91;;;23.24;54.20
26859;BME280;14429;48.346;16.338;2023-05-23T09:38:48;99237.41;;;23.42;54.86
26859;BME280;14429;48.346;16.338;2023-05-23T09:41:13;99234.00;;;23.81;56.13
26859;BME280;14429;48.346;16.338;2023-05-23T09:43:49;99238.72;;;23.46;54.39
26859;BME280;14429;48.346;16.338;2023-05-23T09:46:14;99234.97;;;23.47;55.69
26859;BME280;14429;48.346;16.338;2023-05-23T09:48:45;99232.03;;;24.02;56.05
26859;BME280;14429;48.346;16.338;2023-05-23T09:51:10;99237.19;;;23.64;54.07
26859;BME280;14429;48.346;16.338;2023-05-23T09:53:36;99233.53;;;23.78;56.44
26859;BME280;14429;48.346;16.338;2023-05-23T09:56:02;99222.03;;;23.34;54.08
26859;BME280;14429;48.346;16.338;2023-05-23T09:58:28;99228.34;;;23.55;54.10
26859;BME280;14429;48.346;16.338;2023-05-23T10:00:56;99225.53;;;23.01;54.86
26859;BME280;14429;48.346;16.338;2023-05-23T10:03:26;99224.06;;;23.26;54.59
26859;BME280;14429;48.346;16.338;2023-05-23T10:05:56;99225.88;;;23.19;54.78
26859;BME280;14429;48.346;16.338;2023-05-23T10:08:24;99229.06;;;23.23;54.54
26859;BME280;14429;48.346;16.338;2023-05-23T10:14:05;99223.16;;;22.64;56.23
26859;BME280;14429;48.346;16.338;2023-05-23T10:16:39;99223.31;;;22.91;55.46
26859;BME280;14429;48.346;16.338;2023-05-23T10:19:11;99225.28;;;22.47;56.91
26859;BME280;14429;48.346;16.338;2023-05-23T10:21:42;99221.03;;;22.59;56.76
26859;BME280;14429;48.346;16.338;2023-05-23T10:24:08;99222.88;;;22.73;56.09
26859;BME280;14429;48.346;16.338;2023-05-23T10:26:36;99214.31;;;22.90;55.50
26859;BME280;14429;48.346;16.338;2023-05-23T10:29:01;99210.22;;;22.80;56.40
26859;BME280;14429;48.346;16.338;2023-05-23T10:31:27;99208.78;;;23.04;54.97
26859;BME280;14429;48.346;16.338;2023-05-23T10:33:59;99207.88;;;22.77;56.36
26859;BME280;14429;48.346;16.338;2023-05-23T10:36:32;99208.16;;;22.68;56.40
26859;BME280;14429;48.346;16.338;2023-05-23T10:39:05;99199.16;;;22.46;56.97
26859;BME280;14429;48.346;16.338;2023-05-23T10:41:42;99196.69;;;22.51;56.94
26859;BME280;14429;48.346;16.338;2023-05-23T10:44:11;99183.66;;;23.02;55.79
26859;BME280;14429;48.346;16.338;2023-05-23T10:46:51;99183.03;;;22.80;55.84
26859;BME280;14429;48.346;16.338;2023-05-23T10:49:18;99175.09;;;22.64;56.50
26859;BME280;14429;48.346;16.338;2023-05-23T10:51:47;99175.13;;;23.05;54.92
26859;BME280;14429;48.346;16.338;2023-05-23T10:54:13;99178.44;;;22.66;56.52
26859;BME280;14429;48.346;16.338;2023-05-23T10:56:38;99180.53;;;22.64;56.52
26859;BME280;14429;48.346;16.338;2023-05-23T10:59:04;99169.53;;;22.72;56.37
26859;BME280;14429;48.346;16.338;2023-05-23T11:01:30;99173.94;;;22.94;56.37
26859;BME280;14429;48.346;16.338;2023-05-23T11:03:55;99168.13;;;22.76;56.34
26859;BME280;14429;48.346;16.338;2023-05-23T11:06:30;99161.09;;;22.46;56.88
26859;BME280;14429;48.346;16.338;2023-05-23T11:09:01;99161.09;;;22.67;56.41
26859;BME280;14429;48.346;16.338;2023-05-23T11:11:50;99156.78;;;22.72;56.60
26859;BME280;14429;48.346;16.338;2023-05-23T11:14:16;99152.06;;;23.01;56.63
26859;BME280;14429;48.346;16.338;2023-05-23T11:16:43;99156.47;;;22.68;56.58
26859;BME280;14429;48.346;16.338;2023-05-23T11:19:22;99143.84;;;22.40;57.23
26859;BME280;14429;48.346;16.338;2023-05-23T11:21:52;99142.81;;;22.41;57.58
26859;BME280;14429;48.346;16.338;2023-05-23T11:24:17;99143.97;;;22.52;57.17
26859;BME280;14429;48.346;16.338;2023-05-23T11:26:51;99132.75;;;22.97;55.97
26859;BME280;14429;48.346;16.338;2023-05-23T11:29:17;99131.50;;;22.58;56.87
26859;BME280;14429;48.346;16.338;2023-05-23T11:31:43;99142.50;;;22.50;57.06
26859;BME280;14429;48.346;16.338;2023-05-23T11:34:10;99138.31;;;22.68;58.64
26859;BME280;14429;48.346;16.338;2023-05-23T11:36:36;99149.28;;;22.60;57.05
26859;BME280;14429;48.346;16.338;2023-05-23T11:39:03;99153.72;;;22.61;56.98
26859;BME280;14429;48.346;16.338;2023-05-23T11:41:29;99142.84;;;22.61;57.04
26859;BME280;14429;48.346;16.338;2023-05-23T11:43:54;99156.28;;;22.48;57.46
26859;BME280;14429;48.346;16.338;2023-05-23T11:46:20;99144.06;;;22.59;57.14
26859;BME280;14429;48.346;16.338;2023-05-23T11:48:45;99140.06;;;22.55;57.71
26859;BME280;14429;48.346;16.338;2023-05-23T11:51:11;99135.78;;;22.67;57.27
26859;BME280;14429;48.346;16.338;2023-05-23T11:53:37;99127.91;;;22.71;57.07
26859;BME280;14429;48.346;16.338;2023-05-23T11:56:04;99127.16;;;22.63;57.30
26859;BME280;14429;48.346;16.338;2023-05-23T11:58:31;99123.06;;;22.53;57.51
26859;BME280;14429;48.346;16.338;2023-05-23T12:00:58;99125.78;;;22.53;57.48
26859;BME280;14429;48.346;16.338;2023-05-23T12:03:24;99111.66;;;22.57;57.16
26859;BME280;14429;48.346;16.338;2023-05-23T12:05:50;99112.94;;;22.61;57.28
26859;BME280;14429;48.346;16.338;2023-05-23T12:08:15;99105.22;;;22.65;57.10
26859;BME280;14429;48.346;16.338;2023-05-23T12:10:56;99108.41;;;22.68;56.98
26859;BME280;14429;48.346;16.338;2023-05-23T12:13:24;99105.69;;;22.68;56.56
26859;BME280;14429;48.346;16.338;2023-05-23T12:15:53;99116.94;;;22.65;56.73
26859;BME280;14429;48.346;16.338;2023-05-23T12:18:18;99126.16;;;22.64;56.77
26859;BME280;14429;48.346;16.338;2023-05-23T12:20:44;99116.94;;;22.65;57.28
26859;BME280;14429;48.346;16.338;2023-05-23T12:23:17;99131.63;;;22.70;56.72
26859;BME280;14429;48.346;16.338;2023-05-23T12:25:42;99115.41;;;22.77;56.38
26859;BME280;14429;48.346;16.338;2023-05-23T12:28:08;99118.75;;;22.79;56.74
26859;BME280;14429;48.346;16.338;2023-05-23T12:30:41;99114.22;;;22.86;56.19
26859;BME280;14429;48.346;16.338;2023-05-23T12:33:07;99111.44;;;23.00;56.01
26859;BME280;14429;48.346;16.338;2023-05-23T12:35:33;99120.19;;;22.96;55.96
26859;BME280;14429;48.346;16.338;2023-05-23T12:37:58;99112.47;;;23.26;55.03
26859;BME280;14429;48.346;16.338;2023-05-23T12:40:24;99116.69;;;23.28;54.77
26859;BME280;14429;48.346;16.338;2023-05-23T12:42:50;99117.97;;;23.05;55.54
26859;BME280;14429;48.346;16.338;2023-05-23T12:45:16;99127.69;;;22.94;55.94
26859;BME280;14429;48.346;16.338;2023-05-23T12:47:42;99130.75;;;22.84;56.37
26859;BME280;14429;48.346;16.338;2023-05-23T12:50:09;99135.94;;;22.79;56.72